sensor_id;sensor_type;location;lat;lon;timestamp;temperature;humidity
7998;DHT22;4044;49.814;7.828;2022-08-20T00:02:19;22.60;74.00
7998;DHT22;4044;49.814;7.828;2022-08-20T00:04:45;22.50;74.80
7998;DHT22;4044;49.814;7.828;2022-08-20T00:07:12;22.50;74.70
7998;DHT22;4044;49.814;7.828;2022-08-20T00:09:38;22.50;75.10
7998;DHT22;4044;49.814;7.828;2022-08-20T00:12:05;22.40;75.70
7998;DHT22;4044;49.814;7.828;2022-08-20T00:14:30;22.40;75.30
7998;DHT22;4044;49.814;7.828;2022-08-20T00:16:56;22.50;74.60
7998;DHT22;4044;49.814;7.828;2022-08-20T00:19:21;22.50;75.50
7998;DHT22;4044;49.814;7.828;2022-08-20T00:21:48;22.50;74.70
7998;DHT22;4044;49.814;7.828;2022-08-20T00:24:14;22.50;75.40
7998;DHT22;4044;49.814;7.828;2022-08-20T00:26:39;22.50;74.80
7998;DHT22;4044;49.814;7.828;2022-08-20T00:29:05;22.50;74.60
7998;DHT22;4044;49.814;7.828;2022-08-20T00:31:31;22.60;74.90
7998;DHT22;4044;49.814;7.828;2022-08-20T00:33:57;22.60;75.00
7998;DHT22;4044;49.814;7.828;2022-08-20T00:36:22;22.50;75.20
7998;DHT22;4044;49.814;7.828;2022-08-20T00:38:48;22.50;75.20
7998;DHT22;4044;49.814;7.828;2022-08-20T00:41:18;22.40;77.10
7998;DHT22;4044;49.814;7.828;2022-08-20T00:43:47;22.40;75.90
7998;DHT22;4044;49.814;7.828;2022-08-20T00:48:44;22.40;76.00
7998;DHT22;4044;49.814;7.828;2022-08-20T00:51:34;22.40;75.60
7998;DHT22;4044;49.814;7.828;2022-08-20T00:54:26;22.40;77.00
7998;DHT22;4044;49.814;7.828;2022-08-20T00:56:57;22.40;76.00
7998;DHT22;4044;49.814;7.828;2022-08-20T00:59:26;22.40;75.60
7998;DHT22;4044;49.814;7.828;2022-08-20T01:01:53;22.40;76.10
7998;DHT22;4044;49.814;7.828;2022-08-20T01:04:18;22.40;77.10
7998;DHT22;4044;49.814;7.828;2022-08-20T01:06:44;22.30;76.00
7998;DHT22;4044;49.814;7.828;2022-08-20T01:09:11;22.20;76.60
7998;DHT22;4044;49.814;7.828;2022-08-20T01:11:36;22.10;77.40
7998;DHT22;4044;49.814;7.828;2022-08-20T01:14:11;22.00;77.20
7998;DHT22;4044;49.814;7.828;2022-08-20T01:16:55;21.90;78.90
7998;DHT22;4044;49.814;7.828;2022-08-20T01:19:38;21.80;76.90
7998;DHT22;4044;49.814;7.828;2022-08-20T01:22:05;21.70;77.70
7998;DHT22;4044;49.814;7.828;2022-08-20T01:24:56;21.60;78.40
7998;DHT22;4044;49.814;7.828;2022-08-20T01:27:26;21.50;78.40
7998;DHT22;4044;49.814;7.828;2022-08-20T01:29:52;21.50;79.70
7998;DHT22;4044;49.814;7.828;2022-08-20T01:32:18;21.50;78.20
7998;DHT22;4044;49.814;7.828;2022-08-20T01:34:43;21.50;78.60
7998;DHT22;4044;49.814;7.828;2022-08-20T01:37:09;21.40;78.70
7998;DHT22;4044;49.814;7.828;2022-08-20T01:39:35;21.40;79.00
7998;DHT22;4044;49.814;7.828;2022-08-20T01:45:17;21.40;80.50
7998;DHT22;4044;49.814;7.828;2022-08-20T01:47:43;21.40;81.10
7998;DHT22;4044;49.814;7.828;2022-08-20T01:50:17;21.40;80.20
7998;DHT22;4044;49.814;7.828;2022-08-20T01:53:05;21.40;80.80
7998;DHT22;4044;49.814;7.828;2022-08-20T01:55:32;21.40;80.60
7998;DHT22;4044;49.814;7.828;2022-08-20T01:57:59;21.40;80.00
7998;DHT22;4044;49.814;7.828;2022-08-20T02:00:25;21.40;80.80
7998;DHT22;4044;49.814;7.828;2022-08-20T02:02:51;21.40;80.20
7998;DHT22;4044;49.814;7.828;2022-08-20T02:05:17;21.20;87.40
7998;DHT22;4044;49.814;7.828;2022-08-20T02:07:43;20.50;99.90
7998;DHT22;4044;49.814;7.828;2022-08-20T02:10:12;20.00;98.00
7998;DHT22;4044;49.814;7.828;2022-08-20T02:12:38;19.60;96.90
7998;DHT22;4044;49.814;7.828;2022-08-20T02:15:06;19.50;96.30
7998;DHT22;4044;49.814;7.828;2022-08-20T02:17:35;19.60;96.80
7998;DHT22;4044;49.814;7.828;2022-08-20T02:20:06;19.60;96.40
7998;DHT22;4044;49.814;7.828;2022-08-20T02:22:38;19.80;96.60
7998;DHT22;4044;49.814;7.828;2022-08-20T02:25:06;19.90;96.20
7998;DHT22;4044;49.814;7.828;2022-08-20T02:27:33;20.10;96.00
7998;DHT22;4044;49.814;7.828;2022-08-20T02:29:59;20.10;96.20
7998;DHT22;4044;49.814;7.828;2022-08-20T02:32:25;20.20;96.20
7998;DHT22;4044;49.814;7.828;2022-08-20T02:34:51;20.30;95.50
7998;DHT22;4044;49.814;7.828;2022-08-20T02:37:17;20.30;96.50
7998;DHT22;4044;49.814;7.828;2022-08-20T02:39:45;20.40;96.90
7998;DHT22;4044;49.814;7.828;2022-08-20T02:42:10;20.40;97.30
7998;DHT22;4044;49.814;7.828;2022-08-20T02:44:37;20.40;96.90
7998;DHT22;4044;49.814;7.828;2022-08-20T02:47:05;20.50;96.90
7998;DHT22;4044;49.814;7.828;2022-08-20T02:49:31;20.40;97.10
7998;DHT22;4044;49.814;7.828;2022-08-20T02:51:56;20.40;96.90
7998;DHT22;4044;49.814;7.828;2022-08-20T02:54:22;20.50;96.80
7998;DHT22;4044;49.814;7.828;2022-08-20T02:56:48;20.50;97.10
7998;DHT22;4044;49.814;7.828;2022-08-20T02:59:14;20.50;97.10
7998;DHT22;4044;49.814;7.828;2022-08-20T03:01:39;20.60;96.90
7998;DHT22;4044;49.814;7.828;2022-08-20T03:04:05;20.60;97.10
7998;DHT22;4044;49.814;7.828;2022-08-20T03:06:31;20.70;97.20
7998;DHT22;4044;49.814;7.828;2022-08-20T03:08:56;20.70;96.40
7998;DHT22;4044;49.814;7.828;2022-08-20T03:11:22;20.80;96.40
7998;DHT22;4044;49.814;7.828;2022-08-20T03:13:48;20.80;96.90
7998;DHT22;4044;49.814;7.828;2022-08-20T03:16:13;20.80;96.60
7998;DHT22;4044;49.814;7.828;2022-08-20T03:18:42;20.80;96.90
7998;DHT22;4044;49.814;7.828;2022-08-20T03:21:10;20.80;96.40
7998;DHT22;4044;49.814;7.828;2022-08-20T03:23:37;20.90;96.60
7998;DHT22;4044;49.814;7.828;2022-08-20T03:26:07;20.90;96.60
7998;DHT22;4044;49.814;7.828;2022-08-20T03:28:33;20.90;96.60
7998;DHT22;4044;49.814;7.828;2022-08-20T03:30:59;20.90;96.30
7998;DHT22;4044;49.814;7.828;2022-08-20T03:33:26;20.90;96.60
7998;DHT22;4044;49.814;7.828;2022-08-20T03:35:52;20.90;96.30
7998;DHT22;4044;49.814;7.828;2022-08-20T03:38:19;20.90;96.60
7998;DHT22;4044;49.814;7.828;2022-08-20T03:40:45;20.90;96.70
7998;DHT22;4044;49.814;7.828;2022-08-20T03:43:11;20.90;96.80
7998;DHT22;4044;49.814;7.828;2022-08-20T03:45:39;20.80;96.70
7998;DHT22;4044;49.814;7.828;2022-08-20T03:48:09;20.80;96.60
7998;DHT22;4044;49.814;7.828;2022-08-20T03:50:37;20.70;97.40
7998;DHT22;4044;49.814;7.828;2022-08-20T03:53:07;20.70;96.60
7998;DHT22;4044;49.814;7.828;2022-08-20T03:55:33;20.70;96.80
7998;DHT22;4044;49.814;7.828;2022-08-20T03:58:03;20.70;96.90
7998;DHT22;4044;49.814;7.828;2022-08-20T04:00:33;20.70;96.90
7998;DHT22;4044;49.814;7.828;2022-08-20T04:02:59;20.70;97.20
7998;DHT22;4044;49.814;7.828;2022-08-20T04:05:26;20.70;96.90
7998;DHT22;4044;49.814;7.828;2022-08-20T04:07:52;20.70;97.20
7998;DHT22;4044;49.814;7.828;2022-08-20T04:10:18;20.70;97.10
7998;DHT22;4044;49.814;7.828;2022-08-20T04:12:43;20.80;97.00
7998;DHT22;4044;49.814;7.828;2022-08-20T04:15:12;20.80;97.10
7998;DHT22;4044;49.814;7.828;2022-08-20T04:17:41;20.80;97.30
7998;DHT22;4044;49.814;7.828;2022-08-20T04:20:09;20.80;97.00
7998;DHT22;4044;49.814;7.828;2022-08-20T04:22:35;21.00;97.40
7998;DHT22;4044;49.814;7.828;2022-08-20T04:25:03;20.80;97.00
7998;DHT22;4044;49.814;7.828;2022-08-20T04:27:29;20.90;97.30
7998;DHT22;4044;49.814;7.828;2022-08-20T04:29:57;20.90;97.40
7998;DHT22;4044;49.814;7.828;2022-08-20T04:32:22;20.90;96.90
7998;DHT22;4044;49.814;7.828;2022-08-20T04:34:48;20.90;97.10
7998;DHT22;4044;49.814;7.828;2022-08-20T04:37:19;21.00;97.30
7998;DHT22;4044;49.814;7.828;2022-08-20T04:39:45;20.90;97.40
7998;DHT22;4044;49.814;7.828;2022-08-20T04:42:31;21.00;97.20
7998;DHT22;4044;49.814;7.828;2022-08-20T04:44:56;21.00;97.30
7998;DHT22;4044;49.814;7.828;2022-08-20T04:47:22;21.00;97.20
7998;DHT22;4044;49.814;7.828;2022-08-20T04:49:47;21.10;97.40
7998;DHT22;4044;49.814;7.828;2022-08-20T04:52:13;21.10;97.20
7998;DHT22;4044;49.814;7.828;2022-08-20T04:54:38;21.20;97.30
7998;DHT22;4044;49.814;7.828;2022-08-20T04:57:04;21.20;97.10
7998;DHT22;4044;49.814;7.828;2022-08-20T04:59:29;21.30;97.10
7998;DHT22;4044;49.814;7.828;2022-08-20T05:01:55;21.30;97.20
7998;DHT22;4044;49.814;7.828;2022-08-20T05:04:20;21.30;97.00
7998;DHT22;4044;49.814;7.828;2022-08-20T05:06:47;21.30;96.80
7998;DHT22;4044;49.814;7.828;2022-08-20T05:09:13;21.30;96.90
7998;DHT22;4044;49.814;7.828;2022-08-20T05:11:39;21.40;96.70
7998;DHT22;4044;49.814;7.828;2022-08-20T05:14:06;21.40;96.90
7998;DHT22;4044;49.814;7.828;2022-08-20T05:16:32;21.50;96.80
7998;DHT22;4044;49.814;7.828;2022-08-20T05:19:02;21.50;96.90
7998;DHT22;4044;49.814;7.828;2022-08-20T05:21:28;21.50;96.40
7998;DHT22;4044;49.814;7.828;2022-08-20T05:23:53;21.50;96.70
7998;DHT22;4044;49.814;7.828;2022-08-20T05:26:19;21.50;96.70
7998;DHT22;4044;49.814;7.828;2022-08-20T05:28:44;21.50;96.70
7998;DHT22;4044;49.814;7.828;2022-08-20T05:31:10;21.50;96.60
7998;DHT22;4044;49.814;7.828;2022-08-20T05:33:37;21.50;96.80
7998;DHT22;4044;49.814;7.828;2022-08-20T05:36:04;21.50;96.60
7998;DHT22;4044;49.814;7.828;2022-08-20T05:38:31;21.50;96.90
7998;DHT22;4044;49.814;7.828;2022-08-20T05:40:56;21.60;96.80
7998;DHT22;4044;49.814;7.828;2022-08-20T05:43:22;21.70;96.90
7998;DHT22;4044;49.814;7.828;2022-08-20T05:45:49;21.60;96.40
7998;DHT22;4044;49.814;7.828;2022-08-20T05:48:22;21.70;96.80
7998;DHT22;4044;49.814;7.828;2022-08-20T05:50:50;21.60;96.30
7998;DHT22;4044;49.814;7.828;2022-08-20T05:53:17;21.60;95.50
7998;DHT22;4044;49.814;7.828;2022-08-20T05:55:43;21.60;95.40
7998;DHT22;4044;49.814;7.828;2022-08-20T05:58:16;21.60;95.50
7998;DHT22;4044;49.814;7.828;2022-08-20T06:00:43;21.70;95.70
7998;DHT22;4044;49.814;7.828;2022-08-20T06:03:09;21.80;94.90
7998;DHT22;4044;49.814;7.828;2022-08-20T06:05:53;22.00;95.00
7998;DHT22;4044;49.814;7.828;2022-08-20T06:08:18;22.00;94.70
7998;DHT22;4044;49.814;7.828;2022-08-20T06:10:44;22.00;94.40
7998;DHT22;4044;49.814;7.828;2022-08-20T06:13:10;22.00;94.20
7998;DHT22;4044;49.814;7.828;2022-08-20T06:15:36;22.00;94.20
7998;DHT22;4044;49.814;7.828;2022-08-20T06:18:05;22.00;94.00
7998;DHT22;4044;49.814;7.828;2022-08-20T06:20:33;21.90;93.80
7998;DHT22;4044;49.814;7.828;2022-08-20T06:22:58;21.90;94.00
7998;DHT22;4044;49.814;7.828;2022-08-20T06:25:24;22.00;94.00
7998;DHT22;4044;49.814;7.828;2022-08-20T06:27:49;22.00;93.70
7998;DHT22;4044;49.814;7.828;2022-08-20T06:30:15;22.00;93.80
7998;DHT22;4044;49.814;7.828;2022-08-20T06:32:41;22.10;93.80
7998;DHT22;4044;49.814;7.828;2022-08-20T06:35:08;22.20;93.60
7998;DHT22;4044;49.814;7.828;2022-08-20T06:37:36;22.40;93.20
7998;DHT22;4044;49.814;7.828;2022-08-20T06:40:09;22.50;93.10
7998;DHT22;4044;49.814;7.828;2022-08-20T06:42:36;22.70;92.90
7998;DHT22;4044;49.814;7.828;2022-08-20T06:45:04;22.90;92.80
7998;DHT22;4044;49.814;7.828;2022-08-20T06:47:30;23.10;92.20
7998;DHT22;4044;49.814;7.828;2022-08-20T06:49:56;23.30;92.20
7998;DHT22;4044;49.814;7.828;2022-08-20T06:52:22;23.50;91.80
7998;DHT22;4044;49.814;7.828;2022-08-20T06:54:48;23.70;91.40
7998;DHT22;4044;49.814;7.828;2022-08-20T06:57:14;23.70;91.30
7998;DHT22;4044;49.814;7.828;2022-08-20T06:59:40;23.60;90.80
7998;DHT22;4044;49.814;7.828;2022-08-20T07:02:06;23.60;91.00
7998;DHT22;4044;49.814;7.828;2022-08-20T07:04:32;23.50;91.00
7998;DHT22;4044;49.814;7.828;2022-08-20T07:06:58;23.50;90.70
7998;DHT22;4044;49.814;7.828;2022-08-20T07:09:25;23.60;90.90
7998;DHT22;4044;49.814;7.828;2022-08-20T07:11:51;23.80;90.90
7998;DHT22;4044;49.814;7.828;2022-08-20T07:14:17;23.80;90.20
7998;DHT22;4044;49.814;7.828;2022-08-20T07:16:44;23.80;90.20
7998;DHT22;4044;49.814;7.828;2022-08-20T07:19:12;23.90;90.00
7998;DHT22;4044;49.814;7.828;2022-08-20T07:21:38;24.00;90.00
7998;DHT22;4044;49.814;7.828;2022-08-20T07:24:04;24.20;90.00
7998;DHT22;4044;49.814;7.828;2022-08-20T07:26:30;24.30;89.00
7998;DHT22;4044;49.814;7.828;2022-08-20T07:28:56;24.30;87.70
7998;DHT22;4044;49.814;7.828;2022-08-20T07:31:22;24.10;88.70
7998;DHT22;4044;49.814;7.828;2022-08-20T07:34:06;24.00;87.80
7998;DHT22;4044;49.814;7.828;2022-08-20T07:36:32;24.10;87.90
7998;DHT22;4044;49.814;7.828;2022-08-20T07:38:58;23.90;86.80
7998;DHT22;4044;49.814;7.828;2022-08-20T07:41:25;23.90;87.40
7998;DHT22;4044;49.814;7.828;2022-08-20T07:43:51;23.80;86.70
7998;DHT22;4044;49.814;7.828;2022-08-20T07:46:18;23.50;86.20
7998;DHT22;4044;49.814;7.828;2022-08-20T07:48:46;23.40;87.60
7998;DHT22;4044;49.814;7.828;2022-08-20T07:51:16;23.60;87.80
7998;DHT22;4044;49.814;7.828;2022-08-20T07:53:43;23.80;87.90
7998;DHT22;4044;49.814;7.828;2022-08-20T07:56:14;24.00;87.90
7998;DHT22;4044;49.814;7.828;2022-08-20T07:58:49;24.00;85.00
7998;DHT22;4044;49.814;7.828;2022-08-20T08:01:20;24.30;85.30
7998;DHT22;4044;49.814;7.828;2022-08-20T08:03:46;24.50;84.20
7998;DHT22;4044;49.814;7.828;2022-08-20T08:06:12;24.40;84.10
7998;DHT22;4044;49.814;7.828;2022-08-20T08:08:39;24.50;83.30
7998;DHT22;4044;49.814;7.828;2022-08-20T08:11:05;24.50;81.90
7998;DHT22;4044;49.814;7.828;2022-08-20T08:13:34;24.40;81.10
7998;DHT22;4044;49.814;7.828;2022-08-20T08:16:02;24.30;80.90
7998;DHT22;4044;49.814;7.828;2022-08-20T08:18:33;24.10;80.50
7998;DHT22;4044;49.814;7.828;2022-08-20T08:21:01;24.00;80.60
7998;DHT22;4044;49.814;7.828;2022-08-20T08:23:26;23.90;82.10
7998;DHT22;4044;49.814;7.828;2022-08-20T08:25:53;23.80;79.90
7998;DHT22;4044;49.814;7.828;2022-08-20T08:28:19;23.80;81.10
7998;DHT22;4044;49.814;7.828;2022-08-20T08:30:46;24.00;80.50
7998;DHT22;4044;49.814;7.828;2022-08-20T08:33:24;24.30;80.10
7998;DHT22;4044;49.814;7.828;2022-08-20T08:35:54;24.50;79.30
7998;DHT22;4044;49.814;7.828;2022-08-20T08:38:20;24.60;77.30
7998;DHT22;4044;49.814;7.828;2022-08-20T08:40:51;24.80;78.40
7998;DHT22;4044;49.814;7.828;2022-08-20T08:43:21;25.10;77.40
7998;DHT22;4044;49.814;7.828;2022-08-20T08:46:03;25.40;76.80
7998;DHT22;4044;49.814;7.828;2022-08-20T08:48:36;25.50;75.80
7998;DHT22;4044;49.814;7.828;2022-08-20T08:51:05;25.60;75.90
7998;DHT22;4044;49.814;7.828;2022-08-20T08:53:40;25.70;73.70
7998;DHT22;4044;49.814;7.828;2022-08-20T08:56:08;25.80;72.00
7998;DHT22;4044;49.814;7.828;2022-08-20T08:58:34;25.60;70.70
7998;DHT22;4044;49.814;7.828;2022-08-20T09:01:03;25.50;71.90
7998;DHT22;4044;49.814;7.828;2022-08-20T09:03:35;25.40;72.50
7998;DHT22;4044;49.814;7.828;2022-08-20T09:06:02;25.40;72.80
7998;DHT22;4044;49.814;7.828;2022-08-20T09:08:32;25.30;70.60
7998;DHT22;4044;49.814;7.828;2022-08-20T09:11:06;25.20;71.90
7998;DHT22;4044;49.814;7.828;2022-08-20T09:13:32;25.30;71.10
7998;DHT22;4044;49.814;7.828;2022-08-20T09:15:58;25.40;70.20
7998;DHT22;4044;49.814;7.828;2022-08-20T09:18:23;25.40;70.50
7998;DHT22;4044;49.814;7.828;2022-08-20T09:20:49;25.30;70.80
7998;DHT22;4044;49.814;7.828;2022-08-20T09:23:15;25.40;71.10
7998;DHT22;4044;49.814;7.828;2022-08-20T09:25:40;25.60;71.50
7998;DHT22;4044;49.814;7.828;2022-08-20T09:28:06;26.00;70.70
7998;DHT22;4044;49.814;7.828;2022-08-20T09:30:31;26.00;68.40
7998;DHT22;4044;49.814;7.828;2022-08-20T09:32:58;26.00;69.70
7998;DHT22;4044;49.814;7.828;2022-08-20T09:35:24;26.00;68.90
7998;DHT22;4044;49.814;7.828;2022-08-20T09:37:50;26.10;69.50
7998;DHT22;4044;49.814;7.828;2022-08-20T09:40:17;26.10;70.00
7998;DHT22;4044;49.814;7.828;2022-08-20T09:42:43;25.90;69.60
7998;DHT22;4044;49.814;7.828;2022-08-20T09:45:10;25.80;70.20
7998;DHT22;4044;49.814;7.828;2022-08-20T09:47:36;25.80;69.30
7998;DHT22;4044;49.814;7.828;2022-08-20T09:50:02;25.70;69.50
7998;DHT22;4044;49.814;7.828;2022-08-20T09:52:34;25.60;70.00
7998;DHT22;4044;49.814;7.828;2022-08-20T09:55:07;25.60;70.00
7998;DHT22;4044;49.814;7.828;2022-08-20T09:57:36;25.40;69.70
7998;DHT22;4044;49.814;7.828;2022-08-20T10:00:06;25.40;69.40
7998;DHT22;4044;49.814;7.828;2022-08-20T10:02:36;25.40;69.50
7998;DHT22;4044;49.814;7.828;2022-08-20T10:05:03;25.50;69.10
7998;DHT22;4044;49.814;7.828;2022-08-20T10:07:28;25.70;68.30
7998;DHT22;4044;49.814;7.828;2022-08-20T10:09:54;25.80;68.60
7998;DHT22;4044;49.814;7.828;2022-08-20T10:12:20;26.00;68.00
7998;DHT22;4044;49.814;7.828;2022-08-20T10:14:45;26.40;68.70
7998;DHT22;4044;49.814;7.828;2022-08-20T10:17:10;26.80;65.70
7998;DHT22;4044;49.814;7.828;2022-08-20T10:19:36;27.20;62.70
7998;DHT22;4044;49.814;7.828;2022-08-20T10:22:02;27.60;62.60
7998;DHT22;4044;49.814;7.828;2022-08-20T10:24:27;27.80;60.80
7998;DHT22;4044;49.814;7.828;2022-08-20T10:26:58;27.90;60.80
7998;DHT22;4044;49.814;7.828;2022-08-20T10:29:25;27.90;62.00
7998;DHT22;4044;49.814;7.828;2022-08-20T10:31:52;27.80;58.80
7998;DHT22;4044;49.814;7.828;2022-08-20T10:34:18;27.60;59.20
7998;DHT22;4044;49.814;7.828;2022-08-20T10:36:44;27.70;59.70
7998;DHT22;4044;49.814;7.828;2022-08-20T10:39:10;27.60;59.80
7998;DHT22;4044;49.814;7.828;2022-08-20T10:41:35;27.20;58.40
7998;DHT22;4044;49.814;7.828;2022-08-20T10:44:02;27.10;57.70
7998;DHT22;4044;49.814;7.828;2022-08-20T10:46:28;27.30;58.30
7998;DHT22;4044;49.814;7.828;2022-08-20T10:48:53;27.60;56.50
7998;DHT22;4044;49.814;7.828;2022-08-20T10:51:19;27.80;53.80
7998;DHT22;4044;49.814;7.828;2022-08-20T10:53:45;27.90;55.30
7998;DHT22;4044;49.814;7.828;2022-08-20T10:56:10;28.00;54.90
7998;DHT22;4044;49.814;7.828;2022-08-20T10:58:36;28.20;56.10
7998;DHT22;4044;49.814;7.828;2022-08-20T11:01:02;28.40;54.10
7998;DHT22;4044;49.814;7.828;2022-08-20T11:03:27;28.50;53.90
7998;DHT22;4044;49.814;7.828;2022-08-20T11:05:53;28.70;50.30
7998;DHT22;4044;49.814;7.828;2022-08-20T11:08:18;28.70;48.90
7998;DHT22;4044;49.814;7.828;2022-08-20T11:10:44;28.80;50.50
7998;DHT22;4044;49.814;7.828;2022-08-20T11:13:09;28.90;50.40
7998;DHT22;4044;49.814;7.828;2022-08-20T11:15:39;28.90;50.60
7998;DHT22;4044;49.814;7.828;2022-08-20T11:18:06;29.20;50.40
7998;DHT22;4044;49.814;7.828;2022-08-20T11:20:32;29.40;49.80
7998;DHT22;4044;49.814;7.828;2022-08-20T11:22:58;29.50;49.40
7998;DHT22;4044;49.814;7.828;2022-08-20T11:25:25;29.90;47.80
7998;DHT22;4044;49.814;7.828;2022-08-20T11:27:52;30.20;47.00
7998;DHT22;4044;49.814;7.828;2022-08-20T11:30:25;30.40;48.40
7998;DHT22;4044;49.814;7.828;2022-08-20T11:32:51;30.50;47.10
7998;DHT22;4044;49.814;7.828;2022-08-20T11:35:17;30.80;47.30
7998;DHT22;4044;49.814;7.828;2022-08-20T11:37:44;31.00;45.60
7998;DHT22;4044;49.814;7.828;2022-08-20T11:40:09;31.30;46.50
7998;DHT22;4044;49.814;7.828;2022-08-20T11:42:37;31.20;45.60
7998;DHT22;4044;49.814;7.828;2022-08-20T11:45:04;31.50;47.50
7998;DHT22;4044;49.814;7.828;2022-08-20T11:47:30;31.50;47.40
7998;DHT22;4044;49.814;7.828;2022-08-20T11:50:16;30.80;45.70
7998;DHT22;4044;49.814;7.828;2022-08-20T11:52:43;30.60;45.80
7998;DHT22;4044;49.814;7.828;2022-08-20T11:55:11;30.60;46.10
7998;DHT22;4044;49.814;7.828;2022-08-20T11:57:42;30.60;46.40
7998;DHT22;4044;49.814;7.828;2022-08-20T12:00:11;30.90;45.70
7998;DHT22;4044;49.814;7.828;2022-08-20T12:02:38;31.70;45.00
7998;DHT22;4044;49.814;7.828;2022-08-20T12:05:04;32.40;43.30
7998;DHT22;4044;49.814;7.828;2022-08-20T12:07:30;33.30;43.20
7998;DHT22;4044;49.814;7.828;2022-08-20T12:09:55;33.90;40.20
7998;DHT22;4044;49.814;7.828;2022-08-20T12:12:22;34.60;39.60
7998;DHT22;4044;49.814;7.828;2022-08-20T12:14:49;34.20;38.40
7998;DHT22;4044;49.814;7.828;2022-08-20T12:17:18;34.30;38.90
7998;DHT22;4044;49.814;7.828;2022-08-20T12:19:45;34.70;37.50
7998;DHT22;4044;49.814;7.828;2022-08-20T12:22:11;35.40;37.40
7998;DHT22;4044;49.814;7.828;2022-08-20T12:24:37;35.60;37.40
7998;DHT22;4044;49.814;7.828;2022-08-20T12:27:17;35.80;36.60
7998;DHT22;4044;49.814;7.828;2022-08-20T12:29:45;36.40;35.20
7998;DHT22;4044;49.814;7.828;2022-08-20T12:32:12;36.80;33.60
7998;DHT22;4044;49.814;7.828;2022-08-20T12:34:39;37.20;33.00
7998;DHT22;4044;49.814;7.828;2022-08-20T12:37:11;37.00;33.80
7998;DHT22;4044;49.814;7.828;2022-08-20T12:39:38;37.40;30.90
7998;DHT22;4044;49.814;7.828;2022-08-20T12:42:04;37.30;32.50
7998;DHT22;4044;49.814;7.828;2022-08-20T12:44:30;37.80;30.00
7998;DHT22;4044;49.814;7.828;2022-08-20T12:49:34;37.90;30.30
7998;DHT22;4044;49.814;7.828;2022-08-20T12:52:00;38.40;31.40
7998;DHT22;4044;49.814;7.828;2022-08-20T12:54:26;38.80;29.30
7998;DHT22;4044;49.814;7.828;2022-08-20T12:56:51;39.70;28.60
7998;DHT22;4044;49.814;7.828;2022-08-20T12:59:17;40.20;27.50
7998;DHT22;4044;49.814;7.828;2022-08-20T13:01:43;40.60;28.00
7998;DHT22;4044;49.814;7.828;2022-08-20T13:04:09;40.40;27.70
7998;DHT22;4044;49.814;7.828;2022-08-20T13:06:34;40.60;25.70
7998;DHT22;4044;49.814;7.828;2022-08-20T13:09:00;39.70;26.70
7998;DHT22;4044;49.814;7.828;2022-08-20T13:11:25;39.10;26.10
7998;DHT22;4044;49.814;7.828;2022-08-20T13:13:51;38.80;26.20
7998;DHT22;4044;49.814;7.828;2022-08-20T13:16:16;39.60;26.60
7998;DHT22;4044;49.814;7.828;2022-08-20T13:18:42;40.00;25.90
7998;DHT22;4044;49.814;7.828;2022-08-20T13:21:07;40.20;26.50
7998;DHT22;4044;49.814;7.828;2022-08-20T13:23:33;40.40;26.40
7998;DHT22;4044;49.814;7.828;2022-08-20T13:25:59;41.20;26.70
7998;DHT22;4044;49.814;7.828;2022-08-20T13:28:24;41.60;26.30
7998;DHT22;4044;49.814;7.828;2022-08-20T13:30:50;41.60;26.20
7998;DHT22;4044;49.814;7.828;2022-08-20T13:33:15;42.10;26.50
7998;DHT22;4044;49.814;7.828;2022-08-20T13:35:41;41.70;25.30
7998;DHT22;4044;49.814;7.828;2022-08-20T13:38:06;41.80;26.30
7998;DHT22;4044;49.814;7.828;2022-08-20T13:40:32;41.90;26.20
7998;DHT22;4044;49.814;7.828;2022-08-20T13:42:58;41.60;26.90
7998;DHT22;4044;49.814;7.828;2022-08-20T13:45:24;42.60;26.10
7998;DHT22;4044;49.814;7.828;2022-08-20T13:47:52;42.50;26.90
7998;DHT22;4044;49.814;7.828;2022-08-20T13:50:20;42.70;26.60
7998;DHT22;4044;49.814;7.828;2022-08-20T13:52:46;42.30;27.00
7998;DHT22;4044;49.814;7.828;2022-08-20T13:55:14;42.60;27.50
7998;DHT22;4044;49.814;7.828;2022-08-20T13:57:41;43.20;27.20
7998;DHT22;4044;49.814;7.828;2022-08-20T14:00:09;44.10;27.50
7998;DHT22;4044;49.814;7.828;2022-08-20T14:02:39;44.40;25.90
7998;DHT22;4044;49.814;7.828;2022-08-20T14:05:05;43.70;26.80
7998;DHT22;4044;49.814;7.828;2022-08-20T14:07:31;44.00;26.20
7998;DHT22;4044;49.814;7.828;2022-08-20T14:10:00;42.90;26.80
7998;DHT22;4044;49.814;7.828;2022-08-20T14:12:27;43.70;27.30
7998;DHT22;4044;49.814;7.828;2022-08-20T14:14:53;43.80;26.20
7998;DHT22;4044;49.814;7.828;2022-08-20T14:17:32;43.30;26.50
7998;DHT22;4044;49.814;7.828;2022-08-20T14:20:15;44.10;25.60
7998;DHT22;4044;49.814;7.828;2022-08-20T14:22:41;44.50;25.40
7998;DHT22;4044;49.814;7.828;2022-08-20T14:25:08;45.10;25.40
7998;DHT22;4044;49.814;7.828;2022-08-20T14:27:35;44.40;26.30
7998;DHT22;4044;49.814;7.828;2022-08-20T14:30:04;43.90;26.30
7998;DHT22;4044;49.814;7.828;2022-08-20T14:32:30;44.20;25.40
7998;DHT22;4044;49.814;7.828;2022-08-20T14:34:56;43.50;25.40
7998;DHT22;4044;49.814;7.828;2022-08-20T14:37:31;43.90;26.00
7998;DHT22;4044;49.814;7.828;2022-08-20T14:39:59;44.30;25.50
7998;DHT22;4044;49.814;7.828;2022-08-20T14:42:26;44.50;25.50
7998;DHT22;4044;49.814;7.828;2022-08-20T14:44:56;44.40;26.00
7998;DHT22;4044;49.814;7.828;2022-08-20T14:47:29;44.60;25.80
7998;DHT22;4044;49.814;7.828;2022-08-20T14:49:57;45.10;25.90
7998;DHT22;4044;49.814;7.828;2022-08-20T14:52:26;45.60;26.10
7998;DHT22;4044;49.814;7.828;2022-08-20T14:54:52;46.00;25.10
7998;DHT22;4044;49.814;7.828;2022-08-20T14:57:19;46.30;25.50
7998;DHT22;4044;49.814;7.828;2022-08-20T14:59:46;45.90;25.40
7998;DHT22;4044;49.814;7.828;2022-08-20T15:02:13;45.20;25.30
7998;DHT22;4044;49.814;7.828;2022-08-20T15:04:39;45.20;25.90
7998;DHT22;4044;49.814;7.828;2022-08-20T15:07:12;45.70;25.40
7998;DHT22;4044;49.814;7.828;2022-08-20T15:09:38;45.60;25.90
7998;DHT22;4044;49.814;7.828;2022-08-20T15:12:04;45.50;26.00
7998;DHT22;4044;49.814;7.828;2022-08-20T15:14:29;45.60;26.30
7998;DHT22;4044;49.814;7.828;2022-08-20T15:16:55;45.80;25.80
7998;DHT22;4044;49.814;7.828;2022-08-20T15:19:21;45.50;25.80
7998;DHT22;4044;49.814;7.828;2022-08-20T15:21:47;45.20;26.00
7998;DHT22;4044;49.814;7.828;2022-08-20T15:24:13;44.90;25.90
7998;DHT22;4044;49.814;7.828;2022-08-20T15:26:39;43.90;26.60
7998;DHT22;4044;49.814;7.828;2022-08-20T15:29:04;44.20;27.20
7998;DHT22;4044;49.814;7.828;2022-08-20T15:31:30;44.80;26.50
7998;DHT22;4044;49.814;7.828;2022-08-20T15:33:55;45.30;26.40
7998;DHT22;4044;49.814;7.828;2022-08-20T15:36:21;45.20;26.30
7998;DHT22;4044;49.814;7.828;2022-08-20T15:38:47;45.10;26.00
7998;DHT22;4044;49.814;7.828;2022-08-20T15:41:12;45.40;26.30
7998;DHT22;4044;49.814;7.828;2022-08-20T15:43:38;45.50;26.50
7998;DHT22;4044;49.814;7.828;2022-08-20T15:46:05;45.70;25.90
7998;DHT22;4044;49.814;7.828;2022-08-20T15:48:40;45.80;26.20
7998;DHT22;4044;49.814;7.828;2022-08-20T15:51:20;44.80;26.60
7998;DHT22;4044;49.814;7.828;2022-08-20T15:54:03;44.30;26.70
7998;DHT22;4044;49.814;7.828;2022-08-20T16:02:25;43.40;27.10
7998;DHT22;4044;49.814;7.828;2022-08-20T16:05:31;43.90;27.30
7998;DHT22;4044;49.814;7.828;2022-08-20T16:08:20;43.80;27.00
7998;DHT22;4044;49.814;7.828;2022-08-20T16:13:48;44.80;27.10
7998;DHT22;4044;49.814;7.828;2022-08-20T16:16:21;44.60;27.30
7998;DHT22;4044;49.814;7.828;2022-08-20T16:18:50;44.70;27.30
7998;DHT22;4044;49.814;7.828;2022-08-20T16:21:20;44.90;27.10
7998;DHT22;4044;49.814;7.828;2022-08-20T16:23:49;44.40;27.20